Time;durP1;ratioP1;P1;durP2;ratioP2;P2;SDS_P1;SDS_P2;PMS_P1;PMS_P2;Temp;Humidity;BMP_temperature;BMP_pressure;BME280_temperature;BME280_humidity;BME280_pressure;Samples;Min_cycle;Max_cycle;Signal;HPM_P1;HPM_P2
2023/05/08 00:01:03;;;;;;;12.88;2.47;;;;;;;22.57;50.83;98103.94;4764776;29;20060;-62
2023/05/08 00:03:33;;;;;;;5.50;1.88;;;;;;;22.57;50.85;98091.22;4765295;29;20380;-62
2023/05/08 00:06:05;;;;;;;8.27;1.80;;;;;;;22.54;50.65;98093.69;4760018;29;20139;-63
2023/05/08 00:08:35;;;;;;;4.72;1.33;;;;;;;22.51;50.85;98091.56;4765182;29;20376;-61
2023/05/08 00:11:04;;;;;;;5.90;1.50;;;;;;;22.48;51.16;98086.75;4765358;29;20063;-61
2023/05/08 00:13:33;;;;;;;6.97;1.95;;;;;;;22.46;51.44;98092.41;4764633;30;20102;-61
2023/05/08 00:16:03;;;;;;;9.02;1.70;;;;;;;22.42;51.11;98096.78;4765058;29;20054;-61
2023/05/08 00:18:32;;;;;;;5.65;2.05;;;;;;;22.44;51.41;98094.59;4764549;30;20056;-65
2023/05/08 00:21:02;;;;;;;8.02;2.05;;;;;;;22.37;51.42;98089.53;4764385;29;20112;-64
2023/05/08 00:23:32;;;;;;;7.65;2.85;;;;;;;22.37;51.31;98092.22;4765801;29;20076;-63
2023/05/08 00:26:01;;;;;;;8.15;2.58;;;;;;;22.33;51.42;98083.09;4765586;29;20062;-61
2023/05/08 00:28:30;;;;;;;10.23;3.08;;;;;;;22.35;51.04;98090.88;4759424;29;20118;-62
2023/05/08 00:31:03;;;;;;;9.52;3.17;;;;;;;22.33;51.61;98095.78;4754531;29;20056;-61
2023/05/08 00:33:32;;;;;;;8.88;3.60;;;;;;;22.33;51.33;98099.28;4763319;30;20075;-64
2023/05/08 00:36:03;;;;;;;10.48;3.33;;;;;;;22.32;50.91;98094.97;4763973;29;20048;-64
2023/05/08 00:38:34;;;;;;;12.45;3.88;;;;;;;22.32;51.24;98094.16;4763589;30;20096;-62
2023/05/08 00:41:03;;;;;;;17.50;4.30;;;;;;;22.34;51.48;98086.59;4763747;29;20055;-61
2023/05/08 00:43:34;;;;;;;14.20;5.13;;;;;;;22.32;51.13;98086.88;4764392;30;20052;-63
2023/05/08 00:46:04;;;;;;;11.65;4.88;;;;;;;22.31;51.28;98081.75;4764009;29;20067;-61
2023/05/08 00:48:35;;;;;;;12.20;5.90;;;;;;;22.32;50.53;98075.28;4764992;29;20408;-62
2023/05/08 00:51:07;;;;;;;14.80;5.70;;;;;;;22.33;50.97;98083.09;4763773;29;20488;-61
2023/05/08 00:53:38;;;;;;;12.90;6.22;;;;;;;22.32;50.85;98081.47;4763947;30;20116;-60
2023/05/08 00:56:11;;;;;;;13.15;6.03;;;;;;;22.30;50.70;98089.06;4763697;29;20063;-62
2023/05/08 00:58:42;;;;;;;10.32;5.35;;;;;;;22.30;50.90;98089.06;4764187;30;20056;-60
2023/05/08 01:01:12;;;;;;;9.43;5.20;;;;;;;22.28;50.73;98083.13;4763416;29;20495;-61
2023/05/08 01:03:43;;;;;;;10.35;5.28;;;;;;;22.29;51.15;98082.06;4763707;30;20059;-61
2023/05/08 01:06:13;;;;;;;14.88;6.00;;;;;;;22.30;50.97;98070.19;4764898;29;20517;-61
2023/05/08 01:08:45;;;;;;;9.82;4.53;;;;;;;22.31;50.86;98082.56;4764151;30;20071;-62
2023/05/08 01:11:43;;;;;;;12.02;3.70;;;;;;;22.32;50.01;98081.47;4760432;30;20117;-61
2023/05/08 01:14:34;;;;;;;6.40;3.08;;;;;;;22.38;50.89;98091.16;4763270;29;20458;-61
2023/05/08 01:17:18;;;;;;;6.07;2.30;;;;;;;22.44;50.87;98091.09;4761697;29;20506;-61
2023/05/08 01:20:18;;;;;;;5.68;2.53;;;;;;;22.48;50.36;98092.16;4751587;30;20083;-63
2023/05/08 01:23:08;;;;;;;8.23;3.80;;;;;;;22.54;51.02;98099.09;4763319;30;20073;-60
2023/05/08 01:25:46;;;;;;;7.20;4.10;;;;;;;22.57;50.76;98098.53;4762951;30;20056;-61
2023/05/08 01:28:32;;;;;;;10.13;4.75;;;;;;;22.66;51.04;98094.13;4763725;29;20056;-62
2023/05/08 01:31:27;;;;;;;9.60;4.78;;;;;;;22.72;51.45;98090.31;4762829;29;20480;-63
2023/05/08 01:34:07;;;;;;;10.35;3.90;;;;;;;22.76;50.64;98091.34;4763783;30;20052;-61
2023/05/08 01:36:37;;;;;;;9.57;5.10;;;;;;;22.78;50.11;98097.28;4763257;30;20511;-60
2023/05/08 01:39:26;;;;;;;14.85;6.85;;;;;;;22.86;50.80;98099.34;4762866;29;20059;-61
2023/05/08 01:42:04;;;;;;;11.35;7.15;;;;;;;22.88;50.69;98102.53;4763020;30;20134;-60
2023/05/08 01:44:42;;;;;;;16.40;7.47;;;;;;;22.94;50.25;98103.31;4762443;30;20051;-60
2023/05/08 01:47:14;;;;;;;15.85;8.07;;;;;;;23.03;50.16;98099.69;4762832;29;20048;-60
2023/05/08 01:49:48;;;;;;;18.90;8.07;;;;;;;23.18;49.43;98096.81;4763154;30;20563;-60
2023/05/08 01:52:49;;;;;;;18.40;8.68;;;;;;;23.34;48.86;98091.22;4762810;29;20082;-62
2023/05/08 01:55:31;;;;;;;20.48;9.75;;;;;;;23.57;48.93;98103.91;4762829;29;20047;-61
2023/05/08 01:58:03;;;;;;;18.20;9.48;;;;;;;23.71;47.87;98107.53;4762581;30;20058;-62
2023/05/08 02:00:33;;;;;;;17.47;8.50;;;;;;;23.98;47.64;98107.66;4761369;30;20058;-62
2023/05/08 02:03:07;;;;;;;15.57;8.85;;;;;;;24.27;46.75;98110.19;4763792;29;20064;-63
2023/05/08 02:05:38;;;;;;;21.25;9.52;;;;;;;24.61;45.97;98107.19;4760327;30;20146;-60
2023/05/08 02:08:12;;;;;;;20.65;9.65;;;;;;;24.80;45.35;98120.66;4761978;29;20052;-61
2023/05/08 02:10:44;;;;;;;16.42;9.25;;;;;;;24.98;45.24;98115.19;4762840;30;20105;-62
2023/05/08 02:13:17;;;;;;;20.15;9.13;;;;;;;25.16;44.35;98110.78;4762556;29;20132;-61
2023/05/08 02:15:49;;;;;;;19.67;8.68;;;;;;;25.24;44.73;98112.00;4763216;30;20439;-62
2023/05/08 02:18:21;;;;;;;18.27;8.20;;;;;;;25.22;44.28;98106.09;4763625;29;20047;-62
2023/05/08 02:20:53;;;;;;;15.63;7.95;;;;;;;25.20;43.24;98100.94;4762787;30;20047;-60
2023/05/08 02:23:25;;;;;;;13.32;7.43;;;;;;;25.48;42.31;98107.97;4762812;29;20063;-61
2023/05/08 02:25:55;;;;;;;15.75;7.63;;;;;;;25.52;43.49;98099.22;4762770;30;20531;-61
2023/05/08 02:28:28;;;;;;;14.45;7.82;;;;;;;25.70;42.95;98104.53;4762068;29;20058;-61
2023/05/08 02:30:59;;;;;;;13.20;6.85;;;;;;;25.74;43.03;98110.97;4762428;30;20101;-61
2023/05/08 02:33:30;;;;;;;17.30;5.70;;;;;;;25.88;42.75;98100.88;4762805;30;20059;-63
2023/05/08 02:36:01;;;;;;;9.95;4.30;;;;;;;25.92;41.60;98091.00;4763939;29;20142;-62
2023/05/08 02:38:31;;;;;;;8.35;3.20;;;;;;;26.03;42.16;98107.03;4762921;29;20124;-62
2023/05/08 02:41:05;;;;;;;7.15;2.65;;;;;;;26.21;41.11;98095.22;4761205;30;20481;-62
2023/05/08 02:43:35;;;;;;;6.53;2.30;;;;;;;26.17;42.01;98095.03;4762261;30;20056;-61
2023/05/08 02:46:22;;;;;;;6.07;2.22;;;;;;;26.09;42.69;98100.38;4762326;29;20396;-61
2023/05/08 02:49:07;;;;;;;6.93;3.30;;;;;;;26.26;41.54;98093.19;4763035;30;20064;-60
2023/05/08 02:52:00;;;;;;;10.60;3.15;;;;;;;26.22;41.83;98088.69;4748733;30;20048;-62
2023/05/08 02:54:35;;;;;;;7.57;2.90;;;;;;;26.43;41.04;98091.69;4738003;29;20380;-61
2023/05/08 02:57:27;;;;;;;11.13;3.38;;;;;;;26.37;41.62;98093.75;4762816;29;20541;-63
2023/05/08 03:00:13;;;;;;;5.78;2.50;;;;;;;26.40;40.50;98087.69;4763324;30;20062;-61
2023/05/08 03:03:27;;;;;;;5.35;2.17;;;;;;;26.43;40.74;98099.84;4762653;30;20072;-62
2023/05/08 03:05:59;;;;;;;;;;;;;;;26.42;40.72;98099.06;4745350;30;20139;-61
2023/05/08 03:08:31;;;;;;;6.97;2.00;;;;;;;26.68;40.71;98096.50;4745970;30;19937;-61
2023/05/08 03:11:07;;;;;;;6.00;2.45;;;;;;;26.48;41.45;98097.81;4768304;29;20087;-64
2023/05/08 03:13:41;;;;;;;4.88;2.22;;;;;;;26.60;40.67;98098.03;4765924;29;20066;-62
2023/05/08 03:16:17;;;;;;;7.07;2.08;;;;;;;26.73;39.78;98099.88;4765727;29;20050;-62
2023/05/08 03:19:04;;;;;;;10.55;2.58;;;;;;;26.74;40.63;98096.03;4766111;30;20052;-63
2023/05/08 03:21:36;;;;;;;8.60;2.50;;;;;;;26.67;41.17;98092.16;4765659;30;20062;-62
2023/05/08 03:24:08;;;;;;;5.35;3.10;;;;;;;26.53;41.45;98099.59;4765904;29;20097;-61
2023/05/08 03:26:37;;;;;;;6.72;2.72;;;;;;;26.50;40.67;98100.22;4765843;30;20056;-60
2023/05/08 03:29:07;;;;;;;8.23;2.72;;;;;;;26.68;40.44;98108.16;4761727;30;20052;-60
2023/05/08 03:31:38;;;;;;;11.45;3.05;;;;;;;26.53;41.00;98110.47;4761602;30;20650;-61
2023/05/08 03:34:11;;;;;;;7.15;3.30;;;;;;;26.30;40.39;98110.47;4765440;29;20477;-61
2023/05/08 03:36:41;;;;;;;9.10;3.70;;;;;;;26.16;41.87;98120.56;4765512;30;20481;-62
2023/05/08 03:39:11;;;;;;;9.65;4.20;;;;;;;26.43;41.38;98118.84;4765302;29;21096;-63
2023/05/08 03:41:40;;;;;;;11.40;4.10;;;;;;;26.77;41.52;98122.59;4765086;30;20066;-61
2023/05/08 03:44:11;;;;;;;8.63;3.85;;;;;;;26.24;41.70;98122.59;4765192;29;20040;-61
2023/05/08 03:46:42;;;;;;;7.80;3.40;;;;;;;26.38;41.30;98127.94;4765388;30;20161;-61
2023/05/08 03:49:13;;;;;;;8.35;3.67;;;;;;;26.52;41.15;98133.28;4765022;29;20591;-61
2023/05/08 03:51:44;;;;;;;9.88;4.22;;;;;;;26.59;41.40;98133.69;4764788;30;20134;-62
2023/05/08 03:54:14;;;;;;;11.30;5.40;;;;;;;26.99;41.45;98140.00;4764250;29;20051;-61
2023/05/08 03:56:44;;;;;;;13.70;6.70;;;;;;;26.94;41.92;98142.84;4764863;30;20056;-64
2023/05/08 03:59:20;;;;;;;13.15;6.97;;;;;;;26.90;41.77;98144.59;4765369;29;20109;-63
2023/05/08 04:02:35;;;;;;;13.10;5.90;;;;;;;26.89;41.38;98149.22;4764942;30;20532;-62
2023/05/08 04:05:33;;;;;;;8.88;5.28;;;;;;;27.00;42.06;98150.53;4760226;29;20477;-61
2023/05/08 04:08:51;;;;;;;11.65;5.90;;;;;;;27.19;43.82;98153.84;4764983;29;20060;-64
2023/05/08 04:12:13;;;;;;;11.98;5.68;;;;;;;27.15;43.41;98158.31;4712907;30;20054;-62
2023/05/08 04:14:59;;;;;;;16.42;6.70;;;;;;;27.34;42.86;98159.97;4709485;30;20144;-61
2023/05/08 04:17:51;;;;;;;23.08;8.20;;;;;;;27.12;43.16;98164.38;4779027;29;20055;-63
2023/05/08 04:20:24;;;;;;;17.80;6.30;;;;;;;27.27;43.03;98150.34;4764126;29;20047;-63
2023/05/08 04:22:54;;;;;;;14.60;7.07;;;;;;;27.22;43.65;98153.19;4765739;29;20139;-65
2023/05/08 04:25:26;;;;;;;15.05;7.28;;;;;;;27.46;43.45;98158.25;4763617;29;20075;-64
2023/05/08 04:27:56;;;;;;;16.98;8.23;;;;;;;27.49;42.29;98157.66;4764062;30;20071;-64
2023/05/08 04:30:27;;;;;;;24.83;7.93;;;;;;;27.51;40.88;98151.91;4763748;30;20116;-64
2023/05/08 04:32:58;;;;;;;18.88;7.38;;;;;;;27.86;40.88;98158.22;4763694;30;20565;-64
2023/05/08 04:35:29;;;;;;;21.75;7.70;;;;;;;27.50;42.11;98153.81;4763516;30;20472;-63
2023/05/08 04:37:59;;;;;;;17.55;8.02;;;;;;;27.79;41.63;98155.97;4764735;30;20128;-63
2023/05/08 04:40:28;;;;;;;17.52;8.50;;;;;;;27.53;41.58;98152.38;4758966;30;20066;-62
2023/05/08 04:42:58;;;;;;;17.50;8.57;;;;;;;27.60;42.39;98145.38;4764077;30;20679;-64
2023/05/08 04:45:28;;;;;;;16.67;8.43;;;;;;;27.85;41.48;98154.69;4763587;30;20070;-64
2023/05/08 04:47:57;;;;;;;19.50;9.02;;;;;;;28.27;40.95;98155.06;4764097;30;20692;-63
2023/05/08 04:50:26;;;;;;;13.32;7.30;;;;;;;28.40;40.69;98157.63;4763852;30;20852;-64
2023/05/08 04:52:56;;;;;;;13.52;6.65;;;;;;;28.18;38.37;98160.50;4763786;30;20055;-63
2023/05/08 04:55:25;;;;;;;13.23;5.82;;;;;;;28.49;39.40;98158.41;4763425;30;20048;-64
2023/05/08 04:57:54;;;;;;;12.00;6.05;;;;;;;28.78;40.25;98163.19;4763637;30;20066;-62
2023/05/08 05:00:24;;;;;;;12.70;6.15;;;;;;;28.58;40.36;98164.66;4763308;29;20141;-63
2023/05/08 05:02:53;;;;;;;23.17;6.63;;;;;;;28.88;39.04;98164.78;4755697;29;20532;-65
2023/05/08 05:05:23;;;;;;;10.48;5.57;;;;;;;28.91;40.01;98158.66;4762988;29;21492;-64
2023/05/08 05:07:52;;;;;;;10.13;5.75;;;;;;;28.82;40.30;98161.41;4764229;30;20116;-64
2023/05/08 05:10:22;;;;;;;17.85;4.90;;;;;;;29.20;40.20;98157.94;4762949;29;20821;-64
2023/05/08 05:12:52;;;;;;;15.10;4.90;;;;;;;28.87;39.54;98160.44;4763541;30;20048;-62
2023/05/08 05:15:21;;;;;;;12.20;4.72;;;;;;;29.20;39.75;98161.47;4762674;29;20063;-63
2023/05/08 05:17:51;;;;;;;18.48;5.30;;;;;;;29.32;36.88;98158.88;4764558;29;20051;-66
2023/05/08 05:20:20;;;;;;;11.93;5.10;;;;;;;29.66;38.29;98165.28;4762722;29;20135;-62
2023/05/08 05:22:50;;;;;;;13.93;5.88;;;;;;;29.47;39.59;98167.66;4748472;30;20496;-64
2023/05/08 05:25:19;;;;;;;19.35;5.55;;;;;;;29.68;38.97;98163.03;4760000;29;20125;-64
2023/05/08 05:27:49;;;;;;;14.77;5.60;;;;;;;29.32;38.36;98164.34;4751286;30;20082;-63
2023/05/08 05:30:18;;;;;;;14.27;5.63;;;;;;;29.14;38.94;98170.97;4762905;29;20076;-63
2023/05/08 05:32:48;;;;;;;13.52;6.28;;;;;;;28.87;40.33;98174.06;4763375;30;20134;-62
2023/05/08 05:35:17;;;;;;;23.50;5.40;;;;;;;28.68;40.36;98170.91;4763693;29;20064;-65
2023/05/08 05:37:46;;;;;;;18.58;6.15;;;;;;;28.75;40.09;98174.75;4762667;30;20401;-67
2023/05/08 05:40:16;;;;;;;15.02;5.38;;;;;;;28.90;39.43;98165.28;4762372;29;20477;-65
2023/05/08 05:42:50;;;;;;;12.82;5.47;;;;;;;28.95;39.67;98171.34;4763394;30;20055;-67
2023/05/08 05:45:20;;;;;;;9.38;4.75;;;;;;;28.95;39.76;98173.25;4762440;29;20048;-65
2023/05/08 05:47:52;;;;;;;13.07;4.82;;;;;;;29.38;40.54;98171.22;4755419;30;20136;-62
2023/05/08 05:50:26;;;;;;;10.52;5.10;;;;;;;29.53;39.23;98177.22;4772116;29;20149;-62
2023/05/08 05:52:57;;;;;;;14.82;5.80;;;;;;;29.77;39.34;98172.78;4762143;30;20131;-64
2023/05/08 05:55:27;;;;;;;10.70;6.05;;;;;;;29.71;39.06;98168.63;4762852;30;20067;-62
2023/05/08 05:57:58;;;;;;;14.00;5.35;;;;;;;29.86;38.70;98167.25;4762256;30;20658;-62
2023/05/08 06:00:27;;;;;;;16.30;6.03;;;;;;;29.99;38.97;98166.22;4763667;29;20531;-62
2023/05/08 06:02:57;;;;;;;12.73;6.40;;;;;;;30.00;38.93;98162.38;4762680;30;20376;-62
2023/05/08 06:05:27;;;;;;;13.23;6.47;;;;;;;30.07;40.67;98161.81;4758913;29;20053;-64
2023/05/08 06:07:58;;;;;;;13.85;6.53;;;;;;;30.22;40.22;98155.78;4756714;30;20055;-63
2023/05/08 06:10:29;;;;;;;10.63;6.70;;;;;;;30.26;40.21;98157.50;4776617;29;20151;-62
2023/05/08 06:12:59;;;;;;;13.18;6.90;;;;;;;30.01;40.05;98158.50;4761655;29;20113;-62
2023/05/08 06:15:29;;;;;;;12.55;6.95;;;;;;;29.70;40.59;98161.56;4760824;30;20064;-63
2023/05/08 06:17:59;;;;;;;26.48;8.48;;;;;;;29.81;38.71;98162.78;4762145;30;20084;-61
2023/05/08 06:20:28;;;;;;;14.93;7.97;;;;;;;29.96;41.12;98161.44;4762368;29;20066;-63
2023/05/08 06:22:57;;;;;;;17.05;8.30;;;;;;;30.23;39.16;98169.09;4762111;30;20066;-62
2023/05/08 06:25:27;;;;;;;21.65;9.05;;;;;;;30.25;39.84;98161.38;4749027;29;20743;-63
2023/05/08 06:27:56;;;;;;;21.88;8.48;;;;;;;30.12;38.98;98161.63;4746308;30;20139;-62
2023/05/08 06:30:26;;;;;;;21.00;9.85;;;;;;;30.28;40.80;98162.63;4745945;30;20106;-63
2023/05/08 06:32:55;;;;;;;19.00;9.70;;;;;;;30.19;40.25;98159.97;4755764;29;20548;-61
2023/05/08 06:35:25;;;;;;;21.35;10.38;;;;;;;29.80;38.74;98157.66;4764055;29;20124;-62
2023/05/08 06:37:54;;;;;;;21.67;10.32;;;;;;;29.85;38.80;98161.00;4764057;29;20084;-61
2023/05/08 06:40:23;;;;;;;18.98;10.32;;;;;;;29.82;38.24;98160.84;4762894;29;20052;-61
2023/05/08 06:42:53;;;;;;;20.65;10.85;;;;;;;29.79;38.54;98159.56;4764427;29;20064;-61
2023/05/08 06:45:22;;;;;;;19.95;9.55;;;;;;;29.99;40.32;98155.31;4763983;29;20067;-62
2023/05/08 06:47:52;;;;;;;18.85;9.65;;;;;;;30.03;38.18;98153.50;4766442;29;20056;-66
2023/05/08 06:50:21;;;;;;;24.00;9.60;;;;;;;30.05;41.32;98156.69;4766164;29;20058;-61
2023/05/08 06:52:51;;;;;;;19.98;9.43;;;;;;;30.20;40.19;98150.63;4767415;29;20062;-59
2023/05/08 06:55:20;;;;;;;20.20;11.05;;;;;;;30.16;41.33;98152.44;4767038;29;20445;-59
2023/05/08 06:57:50;;;;;;;23.40;10.48;;;;;;;29.96;39.50;98147.78;4767578;29;20490;-60
2023/05/08 07:00:19;;;;;;;19.95;8.68;;;;;;;29.93;40.17;98148.44;4765299;29;20067;-63
2023/05/08 07:02:48;;;;;;;23.98;8.30;;;;;;;30.14;39.94;98138.31;4766990;29;20113;-61
2023/05/08 07:05:18;;;;;;;17.00;8.63;;;;;;;30.16;41.30;98152.44;4766825;29;20076;-62
2023/05/08 07:07:48;;;;;;;12.93;7.00;;;;;;;30.09;39.98;98141.25;4765220;30;20055;-61
2023/05/08 07:10:19;;;;;;;16.98;7.25;;;;;;;30.26;39.71;98132.91;4763904;29;20437;-59
2023/05/08 07:12:50;;;;;;;10.30;5.67;;;;;;;30.23;38.02;98133.56;4767617;29;20044;-64
2023/05/08 07:15:19;;;;;;;10.70;6.15;;;;;;;30.13;38.31;98125.78;4766726;29;20071;-64
2023/05/08 07:17:54;;;;;;;13.52;5.15;;;;;;;30.07;39.18;98127.13;4766930;29;20669;-68
2023/05/08 07:20:23;;;;;;;8.70;4.25;;;;;;;30.20;39.77;98127.97;4765433;29;20056;-66
2023/05/08 07:22:53;;;;;;;16.38;4.20;;;;;;;30.17;38.03;98121.25;4766951;29;20048;-65
2023/05/08 07:25:22;;;;;;;10.68;4.38;;;;;;;30.21;38.05;98121.38;4766282;29;20059;-65
2023/05/08 07:27:52;;;;;;;10.70;3.85;;;;;;;30.14;39.16;98121.91;4766787;29;20063;-66
2023/05/08 07:30:21;;;;;;;13.57;4.55;;;;;;;30.20;39.25;98114.31;4764575;29;20059;-65
2023/05/08 07:32:51;;;;;;;15.80;4.20;;;;;;;30.06;37.86;98124.72;4766721;29;20056;-62
2023/05/08 07:35:21;;;;;;;10.02;4.18;;;;;;;30.05;39.05;98120.41;4750020;29;20871;-60
2023/05/08 07:37:50;;;;;;;9.50;3.70;;;;;;;30.14;38.67;98121.91;4765504;30;20063;-60
2023/05/08 07:40:19;;;;;;;10.25;3.75;;;;;;;30.22;39.58;98114.78;4764195;29;20052;-62
2023/05/08 07:42:48;;;;;;;10.60;4.35;;;;;;;30.09;38.78;98119.41;4764742;29;20051;-63
2023/05/08 07:45:18;;;;;;;11.43;4.50;;;;;;;30.17;39.23;98120.47;4765428;29;20059;-62
2023/05/08 07:47:53;;;;;;;13.07;4.35;;;;;;;30.26;39.15;98124.72;4760638;29;20097;-63
2023/05/08 07:50:24;;;;;;;10.35;4.55;;;;;;;30.17;39.51;98120.47;4757842;29;20389;-63
2023/05/08 07:52:54;;;;;;;13.50;4.00;;;;;;;29.89;38.74;98125.66;4766444;29;20051;-63
2023/05/08 07:55:23;;;;;;;12.50;3.70;;;;;;;29.86;37.16;98115.38;4764167;29;20071;-63
2023/05/08 07:57:52;;;;;;;9.98;4.10;;;;;;;29.98;38.15;98120.13;4765834;29;20044;-65
2023/05/08 08:00:21;;;;;;;15.40;4.20;;;;;;;30.08;38.76;98117.81;4764895;29;20170;-62
2023/05/08 08:02:51;;;;;;;11.32;3.90;;;;;;;30.08;38.59;98117.00;4766371;29;20055;-62
2023/05/08 08:05:21;;;;;;;13.27;4.18;;;;;;;30.04;38.12;98119.59;4765663;29;20056;-64
2023/05/08 08:07:50;;;;;;;13.23;4.63;;;;;;;29.81;38.39;98112.84;4766419;29;20067;-66
2023/05/08 08:10:20;;;;;;;11.52;4.30;;;;;;;29.86;38.53;98121.63;4764523;29;20047;-65
2023/05/08 08:12:50;;;;;;;7.88;4.30;;;;;;;29.76;38.29;98115.75;4765185;30;20074;-66
2023/05/08 08:15:19;;;;;;;9.05;3.80;;;;;;;29.64;38.61;98116.50;4765621;29;20071;-61
2023/05/08 08:17:48;;;;;;;7.63;4.13;;;;;;;29.57;38.47;98101.75;4764123;30;20136;-64
2023/05/08 08:20:18;;;;;;;12.15;4.00;;;;;;;29.50;38.17;98104.22;4763458;29;20570;-63
2023/05/08 08:22:48;;;;;;;14.45;4.00;;;;;;;29.47;38.95;98091.25;4765600;29;20146;-64
2023/05/08 08:25:17;;;;;;;11.63;3.95;;;;;;;29.51;39.79;98100.38;4764679;29;20388;-62
2023/05/08 08:27:46;;;;;;;11.93;3.28;;;;;;;29.47;38.69;98096.69;4764621;30;20056;-65
2023/05/08 08:30:16;;;;;;;11.23;3.70;;;;;;;29.51;39.55;98098.44;4764386;29;20077;-61
2023/05/08 08:32:46;;;;;;;8.68;3.33;;;;;;;29.58;38.68;98090.50;4764866;29;20542;-61
2023/05/08 08:35:15;;;;;;;12.60;3.28;;;;;;;29.52;37.56;98086.38;4764111;29;20135;-61
2023/05/08 08:37:46;;;;;;;10.73;3.13;;;;;;;29.60;37.82;98090.19;4764767;29;20458;-61
2023/05/08 08:40:15;;;;;;;11.48;3.20;;;;;;;29.57;39.44;98082.66;4764702;29;20769;-60
2023/05/08 08:42:45;;;;;;;5.63;3.03;;;;;;;29.44;38.25;98082.56;4764785;29;20134;-60
2023/05/08 08:45:15;;;;;;;12.07;3.42;;;;;;;29.38;38.20;98086.63;4764906;29;20066;-60
2023/05/08 08:47:47;;;;;;;10.02;3.33;;;;;;;29.52;37.81;98075.44;4764357;30;20361;-61
2023/05/08 08:50:19;;;;;;;5.00;3.05;;;;;;;29.56;37.88;98081.06;4764766;29;20067;-62
2023/05/08 08:52:57;;;;;;;10.70;3.10;;;;;;;29.39;38.45;98084.69;4765706;29;20085;-61
2023/05/08 08:55:28;;;;;;;9.50;2.92;;;;;;;29.30;38.79;98076.53;4765756;29;20709;-62
2023/05/08 08:58:18;;;;;;;10.82;3.58;;;;;;;29.33;38.45;98086.81;4764484;30;20129;-61
2023/05/08 09:00:48;;;;;;;9.80;3.33;;;;;;;29.36;39.25;98086.16;4765017;29;20060;-62
2023/05/08 09:03:18;;;;;;;6.50;2.97;;;;;;;29.38;39.40;98080.38;4765128;29;20117;-61
2023/05/08 09:05:48;;;;;;;13.23;3.97;;;;;;;29.29;37.99;98085.88;4763882;29;20060;-63
2023/05/08 09:08:18;;;;;;;13.93;3.65;;;;;;;29.28;38.13;98080.72;4749873;29;20055;-64
2023/05/08 09:10:47;;;;;;;10.63;3.80;;;;;;;29.16;37.13;98078.69;4763609;29;20056;-63
2023/05/08 09:13:18;;;;;;;9.25;3.35;;;;;;;29.16;38.75;98073.25;4759622;29;20056;-63
2023/05/08 09:15:50;;;;;;;13.02;4.03;;;;;;;29.07;38.30;98071.69;4764088;29;20052;-64
2023/05/08 09:18:20;;;;;;;17.88;4.30;;;;;;;29.01;37.41;98080.06;4763446;29;20070;-62
2023/05/08 09:20:50;;;;;;;11.48;4.05;;;;;;;28.99;38.83;98076.03;4763815;29;20070;-63
2023/05/08 09:23:20;;;;;;;8.98;4.10;;;;;;;28.91;38.98;98072.22;4762811;29;20066;-63
2023/05/08 09:25:49;;;;;;;11.60;4.43;;;;;;;28.77;38.90;98071.63;4763424;29;20677;-61
2023/05/08 09:28:26;;;;;;;13.82;4.55;;;;;;;28.74;38.41;98069.56;4762499;29;20059;-61
2023/05/08 09:30:57;;;;;;;11.05;4.32;;;;;;;28.75;38.70;98075.81;4762797;29;20051;-61
2023/05/08 09:33:28;;;;;;;9.60;3.78;;;;;;;28.68;38.99;98068.09;4761996;29;20055;-60
2023/05/08 09:35:58;;;;;;;9.52;3.72;;;;;;;28.65;38.72;98067.97;4764085;29;20048;-61
2023/05/08 09:38:40;;;;;;;9.98;3.55;;;;;;;28.72;38.91;98068.31;4763658;29;20059;-62
2023/05/08 09:41:14;;;;;;;12.18;3.92;;;;;;;28.67;38.61;98079.34;4760916;29;20134;-63
2023/05/08 09:43:58;;;;;;;12.45;3.70;;;;;;;28.62;37.73;98074.06;4763413;29;20071;-61
2023/05/08 09:46:29;;;;;;;8.98;4.03;;;;;;;28.51;38.47;98055.34;4763139;29;20051;-61
2023/05/08 09:49:00;;;;;;;7.60;4.07;;;;;;;28.36;37.78;98061.31;4760693;30;20067;-61
2023/05/08 09:51:31;;;;;;;9.20;2.85;;;;;;;28.36;37.90;98057.81;4762779;29;20063;-61
2023/05/08 09:54:04;;;;;;;5.20;2.40;;;;;;;28.39;38.07;98060.66;4763740;29;20055;-61
2023/05/08 09:56:38;;;;;;;6.30;2.60;;;;;;;28.43;36.80;98064.34;4745635;30;20080;-60
2023/05/08 09:59:25;;;;;;;6.93;2.47;;;;;;;28.35;37.91;98056.19;4745088;30;20148;-62
2023/05/08 10:01:55;;;;;;;7.47;2.10;;;;;;;28.38;37.27;98047.38;4762814;29;20103;-61
2023/05/08 10:04:32;;;;;;;6.00;2.08;;;;;;;28.38;38.02;98059.06;4762292;29;20060;-60
2023/05/08 10:07:03;;;;;;;3.90;1.90;;;;;;;28.37;38.02;98054.72;4763339;29;20124;-62
2023/05/08 10:09:32;;;;;;;14.15;2.60;;;;;;;28.38;38.63;98058.25;4763384;29;20147;-61
2023/05/08 10:12:17;;;;;;;5.60;1.98;;;;;;;28.32;38.46;98052.19;4744149;30;20443;-59
2023/05/08 10:14:46;;;;;;;5.28;2.00;;;;;;;28.32;37.34;98056.84;4762328;29;20722;-61
2023/05/08 10:17:26;;;;;;;11.55;4.38;;;;;;;28.35;37.18;98050.75;4758952;29;20059;-63
2023/05/08 10:20:02;;;;;;;9.82;2.53;;;;;;;28.22;37.29;98057.97;4763301;29;20068;-60
2023/05/08 10:22:37;;;;;;;5.40;1.75;;;;;;;28.18;37.02;98051.59;4763879;29;20622;-62
2023/05/08 10:25:15;;;;;;;5.03;2.08;;;;;;;28.26;36.39;98044.50;4766639;29;20373;-60
2023/05/08 10:28:05;;;;;;;5.10;2.08;;;;;;;28.24;36.78;98050.28;4767205;29;20434;-61
2023/05/08 10:30:41;;;;;;;5.28;2.47;;;;;;;28.30;36.59;98050.91;4766692;29;20056;-60
2023/05/08 10:33:15;;;;;;;10.40;2.42;;;;;;;28.31;36.90;98047.06;4753489;29;20142;-61
2023/05/08 10:35:45;;;;;;;8.60;2.38;;;;;;;28.36;35.94;98041.47;4766729;29;20051;-60
2023/05/08 10:38:16;;;;;;;6.57;2.10;;;;;;;28.54;37.60;98037.56;4759574;29;20052;-60
2023/05/08 10:40:49;;;;;;;6.40;2.58;;;;;;;28.31;38.31;98034.25;4766539;29;20094;-60
2023/05/08 10:43:19;;;;;;;4.78;2.28;;;;;;;28.12;37.48;98041.97;4765487;29;20051;-60
2023/05/08 10:45:49;;;;;;;6.65;1.98;;;;;;;28.08;37.79;98038.25;4766362;29;20377;-60
2023/05/08 10:48:37;;;;;;;10.35;3.40;;;;;;;27.96;38.46;98032.69;4765214;29;20063;-59
2023/05/08 10:51:32;;;;;;;4.75;2.00;;;;;;;27.83;38.40;98029.00;4748491;30;20079;-60
2023/05/08 10:54:18;;;;;;;9.52;2.60;;;;;;;27.85;38.00;98028.66;4764707;29;20059;-62
2023/05/08 10:56:48;;;;;;;10.40;2.25;;;;;;;27.89;39.14;98035.88;4765220;29;20051;-62
2023/05/08 10:59:19;;;;;;;6.47;2.15;;;;;;;27.89;38.53;98030.44;4765261;29;20059;-61
2023/05/08 11:01:49;;;;;;;8.82;2.30;;;;;;;27.86;38.94;98033.81;4765888;29;20062;-61
2023/05/08 11:04:27;;;;;;;6.93;2.60;;;;;;;27.79;38.96;98024.53;4764990;29;20051;-61
2023/05/08 11:06:58;;;;;;;13.05;2.97;;;;;;;27.78;38.52;98022.91;4764826;30;20063;-60
2023/05/08 11:09:46;;;;;;;8.88;3.08;;;;;;;27.72;39.60;98016.03;4764105;29;20060;-60
2023/05/08 11:12:30;;;;;;;5.85;3.10;;;;;;;27.75;39.46;98020.84;4764336;29;20051;-59
2023/05/08 11:15:04;;;;;;;9.68;2.80;;;;;;;27.70;39.71;98022.59;4756558;29;20068;-59
2023/05/08 11:17:34;;;;;;;11.98;4.15;;;;;;;27.66;39.78;98023.56;4765145;29;20572;-61
2023/05/08 11:20:06;;;;;;;6.38;3.10;;;;;;;27.60;39.70;98014.75;4765609;29;20059;-59
2023/05/08 11:22:37;;;;;;;8.10;3.17;;;;;;;27.67;39.96;98025.97;4765780;29;20160;-60
2023/05/08 11:25:06;;;;;;;6.82;2.90;;;;;;;27.70;40.40;98021.81;4765475;29;20056;-62
2023/05/08 11:27:37;;;;;;;9.70;3.13;;;;;;;27.69;40.17;98014.75;4766224;29;20070;-60
2023/05/08 11:30:35;;;;;;;14.35;3.08;;;;;;;27.60;40.46;98013.97;4765333;29;20164;-60
2023/05/08 11:33:07;;;;;;;6.32;2.90;;;;;;;27.60;40.47;98022.94;4763406;29;20048;-59
2023/05/08 11:35:39;;;;;;;6.25;2.42;;;;;;;27.62;39.73;98017.16;4765474;29;20055;-60
2023/05/08 11:38:29;;;;;;;12.70;2.40;;;;;;;27.49;40.26;98018.09;4764837;29;20063;-60
2023/05/08 11:41:04;;;;;;;12.45;2.90;;;;;;;27.38;39.77;98020.31;4765375;29;20063;-60
2023/05/08 11:43:36;;;;;;;11.57;2.60;;;;;;;27.35;39.45;98012.78;4765162;29;20083;-61
2023/05/08 11:46:12;;;;;;;12.17;2.70;;;;;;;27.40;40.00;98019.97;4763923;29;20055;-61
2023/05/08 11:48:42;;;;;;;7.82;2.58;;;;;;;27.37;40.49;98017.91;4765586;29;20064;-62
2023/05/08 11:51:12;;;;;;;11.30;3.05;;;;;;;27.31;40.12;98019.97;4764980;29;20807;-61
2023/05/08 11:53:43;;;;;;;9.63;3.00;;;;;;;27.29;39.55;98021.41;4764829;29;20591;-60
2023/05/08 11:56:13;;;;;;;13.48;3.47;;;;;;;27.25;39.80;98019.34;4764014;29;20507;-61
2023/05/08 11:58:42;;;;;;;14.93;3.28;;;;;;;27.21;38.45;98018.38;4765259;29;20059;-61